Las Vegas, Nevada (DRI) Weather observations

Data are for observation ending at time listed.
 Day   Time    Ave.   Ave.  Ave.  Vector   Max.   Stn.    Total    Solar   Ave.  
  of    of     Air    Rel.  Wind   Wind    Wind   Baro.  Precip.   Rad.    Soil  
Year   Day     Temp.  Hum.  Speed  Dir.    Gust   Pres.                    Temp. 
2015   (PST)    F      %     mph   deg.    mph     mb.     in.     W/m2     F   
------------------------------------------------------------------------------
 107    1:00   62.0    20    2.7    20      4.9   947.0    0.00       0    74.8
 107    1:10   62.0    20    3.0    17      4.9   946.9    0.00       0    74.7
 107    1:20   61.6    21    2.0    15      3.6   946.8    0.00       0    74.6
 107    1:30   61.3    22    1.7    20      5.5   946.8    0.00       0    74.5
 107    1:40   61.6    22    3.9    17      5.6   946.8    0.00       0    74.4
 107    1:50   61.6    22    1.9    17      4.0   946.7    0.00       0    74.3
 107    2:00   61.1    22    1.5    20      2.6   946.6    0.00       0    74.2
 107    2:10   60.8    23    0.6    25      3.2   946.5    0.00       0    74.1
 107    2:20   60.2    24    0.0     0      0.0   946.5    0.00       0    74.0
 107    2:30   60.3    23    0.1    44      1.5   946.3    0.00       0    73.9
 107    2:40   60.9    23    0.9    62      2.9   946.3    0.00       0    73.8
 107    2:50   60.9    23    1.1    56      3.4   946.2    0.00       0    73.7
 107    3:00   60.4    25    0.2   190      2.0   946.3    0.00       0    73.6
 107    3:10   59.2    26    1.4   220      3.7   946.5    0.00       0    73.5
 107    3:20   59.5    26    0.4    15      2.0   946.4    0.00       0    73.5
 107    3:30   59.5    26    1.2   349      2.5   946.4    0.00       0    73.4
 107    3:40   59.1    26    0.0    36      0.4   946.4    0.00       0    73.3
 107    3:50   58.8    26    0.1    71      1.2   946.5    0.00       0    73.2
 107    4:00   58.7    26    0.1    65      1.2   946.6    0.00       0    73.1
 107    4:10   58.6    27    0.0    56      0.1   946.7    0.00       0    73.0
 107    4:20   58.1    28    0.2    17      1.6   946.7    0.00       0    72.9
 107    4:30   57.8    27    0.0    26      0.7   946.7    0.00       0    72.8
 107    4:40   57.8    27    0.2    24      1.6   946.8    0.00       0    72.7
 107    4:50   57.0    28    0.0    40      1.2   946.8    0.00       0    72.6
 107    5:00   56.2    30    0.2   340      3.7   946.9    0.00       2    72.6
 107    5:10   56.5    29    0.9   352      2.7   946.9    0.00       4    72.5
 107    5:20   56.6    29    0.0   355      0.7   947.0    0.00      10    72.4
 107    5:30   57.1    29    0.1   329      1.5   947.1    0.00      16    72.3
 107    5:40   57.0    30    0.0     0      0.0   947.2    0.00      21    72.2
 107    5:50   56.8    32    0.0   316      0.1   947.3    0.00      24    72.1
 107    6:00   57.8    31    0.1   303      0.8   947.4    0.00      29    72.0
 107    6:10   57.6    31    0.2   198      1.5   947.4    0.00      32    71.9
 107    6:20   57.5    32    0.3   189      1.3   947.4    0.00      33    71.8
 107    6:30   57.9    31    0.0   185      0.5   947.4    0.00      36    71.7
 107    6:40   58.6    30    0.0     0      0.0   947.4    0.00      39    71.6
 107    6:50   58.8    29    0.0   184      0.9   947.3    0.00      39    71.5
 107    7:00   59.5    28    0.1   202      1.0   947.3    0.00      39    71.4
 107    7:10   60.3    26    1.2   183      4.2   947.2    0.00      40    71.3
 107    7:20   60.9    26    2.6   178      4.5   947.2    0.00      45    71.3
 107    7:30   61.6    25    1.8   199      4.7   947.3    0.00      46    71.2
 107    7:40   62.0    24    1.6   189      4.5   947.3    0.00      49    71.1
 107    7:50   62.3    23    1.1   336      3.3   947.2    0.00      94    71.0
 107    8:00   62.8    23    2.3   176      6.0   947.2    0.00      87    71.0
 107    8:10   63.4    22    2.5   192      5.9   947.2    0.00      78    70.9
 107    8:20   63.9    22    1.4   172      3.9   947.2    0.00     146    70.8
 107    8:30   64.7    21    0.7   198      2.8   947.1    0.00     491    70.7
 107    8:40   65.8    21    0.1   176      1.4   947.1    0.00     422    70.7
 107    8:50   67.0    20    0.4    78      2.7   947.0    0.00     597    70.6
 107    9:00   67.4    18    2.5    16      5.5   947.0    0.00     816    70.5
 107    9:10   68.0    17    2.1     4      5.9   946.9    0.00     850    70.4
 107    9:20   68.5    16    1.8    14      6.1   946.8    0.00     880    70.4
 107    9:30   69.8    15    2.1   287      4.7   946.7    0.00     906    70.4
 107    9:40   69.8    15    1.6     9      5.3   946.7    0.00     928    70.4
 107    9:50   69.9    15    2.5    43      7.0   946.7    0.00     953    70.3
 107   10:00   70.2    16    2.1    32      6.7   946.6    0.00     973    70.2
 107   10:10   70.6    16    1.8    44      6.0   946.5    0.00     995    70.2
 107   10:20   71.6    15    1.4    36      4.5   946.3    0.00    1010    70.2
 107   10:30   72.0    15    1.6    38      6.6   946.2    0.00    1024    70.1
 107   10:40   71.7    15    1.9   174      5.0   946.0    0.00    1039    70.1
 107   10:50   72.4    15    1.7    46      6.4   945.9    0.00    1051    70.1
 107   11:00   73.1    14    1.8    99      6.1   945.6    0.00    1062    70.1
 107   11:10   72.2    14    2.0    38      5.8   945.5    0.00    1071    70.2
 107   11:20   72.8    14    2.0   316      5.9   945.3    0.00    1080    70.3
 107   11:30   74.1    14    2.3   294      5.3   945.1    0.00    1087    70.4
 107   11:40   75.3    14    2.0   179      6.6   945.0    0.00    1086    70.5
 107   11:50   73.9    14    2.7    43      6.4   944.8    0.00    1085    70.7
 107   12:00   75.0    13    1.4    20      4.2   944.7    0.00    1085    70.9
 107   12:10   76.3    13    2.3   176      5.9   944.5    0.00    1080    71.1
 107   12:20   76.8    13    1.3   148      4.5   944.3    0.00    1077    71.3
 107   12:30   77.1    13    3.3   186      8.2   944.2    0.00    1068    71.5
 107   12:40   77.4    13    2.7   186      7.5   944.2    0.00    1061    71.7
 107   12:50   77.4    12    2.2   188      5.6   944.0    0.00    1052    72.0
 107   13:00   76.3    12    2.3   346      5.6   943.9    0.00    1038    72.2
 107   13:10   77.3    12    2.4   183      9.6   943.6    0.00    1027    72.5
 107   13:20   78.4    12    1.9    82      6.2   943.5    0.00    1005    72.7
 107   13:30   77.1    12    2.9   103      8.2   943.3    0.00     988    73.0
 107   13:40   78.8    12    1.9   169      7.0   943.2    0.00     967    73.3
 107   13:50   79.0    11    1.8    30      5.6   943.1    0.00     945    73.5
 107   14:00   79.8    11    1.7   160      7.1   942.9    0.00     921    73.9
 107   14:10   78.8    11    3.3    50      7.5   942.7    0.00     892    74.2
 107   14:20   78.7    11    3.2    43      7.4   942.6    0.00     870    74.5
 107   14:30   79.2    11    3.8   178      7.5   942.3    0.00     844    74.8
 107   14:40   80.0    11    2.2    38      7.3   942.1    0.00     816    75.0
 107   14:50   81.9    10    2.0    29      6.9   942.0    0.00     778    75.3
 107   15:00   81.1    10    1.8    39      4.7   941.8    0.00     744    75.6
 107   15:10   80.7    10    2.3   197      7.2   941.8    0.00     713    75.9
 107   15:20   81.1    10    2.3    44      6.8   941.7    0.00     678    76.2
 107   15:30   80.8    10    4.4   162     12.8   941.5    0.00     644    76.4
 107   15:40   80.7    10    4.2   199     10.1   941.4    0.00     607    76.7
 107   15:50   81.1     9    2.4   205      6.9   941.4    0.00     566    77.0
 107   16:00   81.6    10    2.8   128      8.3   941.4    0.00     530    77.3
 107   16:10   82.1    10    1.3    27      3.5   941.3    0.00     488    77.5
 107   16:20   81.3    10    3.0    44      6.9   941.3    0.00     447    77.8
 107   16:30   80.0    10    3.4    54      8.6   941.2    0.00     407    78.0
 107   16:40   81.0    10    2.6    49      7.3   941.2    0.00     365    78.2
 107   16:50   80.9    10    2.0    78      5.1   941.2    0.00     323    78.4
 107   17:00   81.3    10    2.6   171      5.6   941.0    0.00     282    78.7
 107   17:10   81.8     9    1.4   182      4.0   941.1    0.00     242    78.9
 107   17:20   81.5    10    1.2   133      4.3   941.0    0.00     203    79.0
 107   17:30   80.6    10    2.9   184      6.1   941.0    0.00     165    79.2
 107   17:40   79.8    10    3.0   173      5.9   941.0    0.00     128    79.4
 107   17:50   78.8    10    3.8   175      7.0   940.8    0.00      37    79.5
 107   18:00   78.7    10    1.5   192      3.9   940.8    0.00      22    79.7
 107   18:10   78.4    10    3.6   179      6.6   940.9    0.00      13    79.8
 107   18:20   78.2    10    2.6   186      6.0   940.9    0.00       6    79.9
 107   18:30   77.9    10    3.0   194      5.7   940.9    0.00       4    79.9
 107   18:40   77.6    10    2.5   190      4.5   941.0    0.00       1    80.0
 107   18:50   77.4    10    2.2   191      5.6   941.0    0.00       0    80.0
 107   19:00   77.2    10    3.6   178      7.4   941.0    0.00       0    80.1
 107   19:10   77.0    11    3.0   186      5.3   941.1    0.00       0    80.1
 107   19:20   76.6    11    2.8   188      5.5   941.2    0.00       0    80.1
 107   19:30   76.5    11    3.5   191      7.2   941.3    0.00       0    80.1
 107   19:40   76.4    11    3.3   199      6.9   941.4    0.00       0    80.0
 107   19:50   76.3    11    4.8   207     10.5   941.5    0.00       0    80.0
 107   20:00   76.0    11    3.7   206      8.0   941.5    0.00       0    80.0
 107   20:10   75.5    12    3.1   197      5.8   941.5    0.00       0    80.0
 107   20:20   75.3    12    3.7   202      8.3   941.5    0.00       0    79.9
 107   20:30   75.2    12    3.5   204      8.0   941.6    0.00       0    79.9
 107   20:40   74.8    12    2.6   197      5.0   941.6    0.00       0    79.8
 107   20:50   74.6    12    2.6   191      5.3   941.7    0.00       0    79.8
 107   21:00   74.3    12    1.9   179      3.2   941.8    0.00       0    79.7
 107   21:10   73.8    12    1.0   161      2.8   941.8    0.00       0    79.6
 107   21:20   72.5    12    1.8   168      6.3   941.9    0.00       0    79.6
 107   21:30   71.6    13    0.0   166      0.9   942.0    0.00       0    79.5
 107   21:40   71.2    13    2.3   178      5.8   942.0    0.00       0    79.4
 107   21:50   71.6    12    4.0   178      6.1   941.9    0.00       0    79.3
 107   22:00   71.0    13    1.6   199      4.1   942.0    0.00       0    79.2
 107   22:10   70.6    13    1.6   198      2.6   942.0    0.00       0    79.1
 107   22:20   70.6    13    3.1   186      5.8   942.0    0.00       0    79.1
 107   22:30   70.5    13    1.3   176      4.1   942.1    0.00       0    79.0
 107   22:40   69.8    13    0.1   148      1.2   942.2    0.00       0    78.9
 107   22:50   68.9    14    0.1   163      1.0   942.2    0.00       0    78.8
 107   23:00   68.1    14    0.0     0      0.0   942.3    0.00       0    78.7
 107   23:10   68.3    15    0.0    57      0.7   942.3    0.00       0    78.6
 107   23:20   69.2    14    0.7    59      2.5   942.5    0.00       0    78.5
 107   23:30   68.1    16    0.0     0      0.0   942.5    0.00       0    78.4
 107   23:40   66.9    16    0.1    63      0.9   942.6    0.00       0    78.3
 107   23:50   66.5    17    0.3    19      2.1   942.7    0.00       0    78.2
 108    0:00   67.1    17    0.5    31      2.0   942.7    0.00       0    78.1
 108    0:10   66.7    17    1.4    12      2.8   942.8    0.00       0    78.0
 108    0:20   66.7    15    1.1    23      2.6   942.8    0.00       0    77.9
 108    0:30   66.8    15    1.1     5      1.9   942.7    0.00       0    77.8
 108    0:40   66.6    17    0.2     1      1.5   942.6    0.00       0    77.7
 108    0:50   66.3    16    0.1   273      2.0   942.7    0.00       0    77.6

Return to Las Vegas, Nevada graphs page.


Western Regional Climate Center,wrcc@dri.edu